sensor_id;sensor_type;location;lat;lon;timestamp;P1;durP1;ratioP1;P2;durP2;ratioP2
37791;SDS011;29527;55.766;37.570;2022-11-24T00:01:27;12.38;;;8.25;;
37791;SDS011;29527;55.766;37.570;2022-11-24T00:03:56;14.40;;;8.35;;
37791;SDS011;29527;55.766;37.570;2022-11-24T00:06:23;13.43;;;7.82;;
37791;SDS011;29527;55.766;37.570;2022-11-24T00:08:49;13.40;;;8.20;;
37791;SDS011;29527;55.766;37.570;2022-11-24T00:11:19;15.48;;;8.70;;
37791;SDS011;29527;55.766;37.570;2022-11-24T00:13:46;13.27;;;8.43;;
37791;SDS011;29527;55.766;37.570;2022-11-24T00:16:22;16.42;;;9.13;;
37791;SDS011;29527;55.766;37.570;2022-11-24T00:18:49;14.98;;;9.73;;
37791;SDS011;29527;55.766;37.570;2022-11-24T00:21:16;17.08;;;10.25;;
37791;SDS011;29527;55.766;37.570;2022-11-24T00:23:43;10.75;;;5.93;;
37791;SDS011;29527;55.766;37.570;2022-11-24T00:26:10;15.73;;;9.73;;
37791;SDS011;29527;55.766;37.570;2022-11-24T00:28:37;12.05;;;7.45;;
37791;SDS011;29527;55.766;37.570;2022-11-24T00:31:12;15.23;;;9.23;;
37791;SDS011;29527;55.766;37.570;2022-11-24T00:33:41;15.95;;;8.43;;
37791;SDS011;29527;55.766;37.570;2022-11-24T00:36:07;15.02;;;9.30;;
37791;SDS011;29527;55.766;37.570;2022-11-24T00:38:32;14.23;;;8.30;;
37791;SDS011;29527;55.766;37.570;2022-11-24T00:40:58;16.73;;;8.63;;
37791;SDS011;29527;55.766;37.570;2022-11-24T00:43:23;17.70;;;9.35;;
37791;SDS011;29527;55.766;37.570;2022-11-24T00:45:49;16.33;;;8.88;;
37791;SDS011;29527;55.766;37.570;2022-11-24T00:48:14;13.63;;;8.73;;
37791;SDS011;29527;55.766;37.570;2022-11-24T00:50:41;16.30;;;9.55;;
37791;SDS011;29527;55.766;37.570;2022-11-24T00:53:06;18.10;;;9.80;;
37791;SDS011;29527;55.766;37.570;2022-11-24T00:55:32;16.50;;;9.45;;
37791;SDS011;29527;55.766;37.570;2022-11-24T00:57:57;13.98;;;9.20;;
37791;SDS011;29527;55.766;37.570;2022-11-24T01:00:23;16.77;;;9.30;;
37791;SDS011;29527;55.766;37.570;2022-11-24T01:02:48;16.75;;;9.55;;
37791;SDS011;29527;55.766;37.570;2022-11-24T01:05:14;16.35;;;9.05;;
37791;SDS011;29527;55.766;37.570;2022-11-24T01:07:39;17.05;;;10.20;;
37791;SDS011;29527;55.766;37.570;2022-11-24T01:10:05;17.80;;;9.93;;
37791;SDS011;29527;55.766;37.570;2022-11-24T01:12:30;16.67;;;9.73;;
37791;SDS011;29527;55.766;37.570;2022-11-24T01:14:57;16.10;;;9.38;;
37791;SDS011;29527;55.766;37.570;2022-11-24T01:17:22;16.10;;;9.80;;
37791;SDS011;29527;55.766;37.570;2022-11-24T01:19:47;16.83;;;9.80;;
37791;SDS011;29527;55.766;37.570;2022-11-24T01:22:13;15.07;;;9.57;;
37791;SDS011;29527;55.766;37.570;2022-11-24T01:24:39;17.77;;;10.30;;
37791;SDS011;29527;55.766;37.570;2022-11-24T01:27:05;14.77;;;8.95;;
37791;SDS011;29527;55.766;37.570;2022-11-24T01:29:31;15.07;;;9.07;;
37791;SDS011;29527;55.766;37.570;2022-11-24T01:31:56;15.25;;;9.13;;
37791;SDS011;29527;55.766;37.570;2022-11-24T01:34:22;15.15;;;9.13;;
37791;SDS011;29527;55.766;37.570;2022-11-24T01:36:47;16.10;;;9.32;;
37791;SDS011;29527;55.766;37.570;2022-11-24T01:39:13;14.77;;;9.48;;
37791;SDS011;29527;55.766;37.570;2022-11-24T01:41:38;15.98;;;10.38;;
37791;SDS011;29527;55.766;37.570;2022-11-24T01:44:23;14.05;;;8.23;;
37791;SDS011;29527;55.766;37.570;2022-11-24T01:46:56;17.27;;;9.93;;
37791;SDS011;29527;55.766;37.570;2022-11-24T01:52:43;16.88;;;8.13;;
37791;SDS011;29527;55.766;37.570;2022-11-24T01:55:02;18.27;;;10.23;;
37791;SDS011;29527;55.766;37.570;2022-11-24T01:57:40;17.60;;;9.35;;
37791;SDS011;29527;55.766;37.570;2022-11-24T02:00:14;18.55;;;10.02;;
37791;SDS011;29527;55.766;37.570;2022-11-24T02:02:40;17.05;;;9.13;;
37791;SDS011;29527;55.766;37.570;2022-11-24T02:05:09;15.20;;;8.70;;
37791;SDS011;29527;55.766;37.570;2022-11-24T02:07:39;16.35;;;8.90;;
37791;SDS011;29527;55.766;37.570;2022-11-24T02:10:07;15.90;;;8.65;;
37791;SDS011;29527;55.766;37.570;2022-11-24T02:12:38;16.42;;;9.57;;
37791;SDS011;29527;55.766;37.570;2022-11-24T02:15:27;14.60;;;8.23;;
37791;SDS011;29527;55.766;37.570;2022-11-24T02:17:53;15.60;;;9.35;;
37791;SDS011;29527;55.766;37.570;2022-11-24T02:20:18;18.10;;;8.90;;
37791;SDS011;29527;55.766;37.570;2022-11-24T02:25:31;15.43;;;7.80;;
37791;SDS011;29527;55.766;37.570;2022-11-24T02:27:59;13.45;;;7.82;;
37791;SDS011;29527;55.766;37.570;2022-11-24T02:30:28;11.23;;;6.25;;
37791;SDS011;29527;55.766;37.570;2022-11-24T02:32:54;13.68;;;7.60;;
37791;SDS011;29527;55.766;37.570;2022-11-24T02:35:20;16.17;;;7.88;;
37791;SDS011;29527;55.766;37.570;2022-11-24T02:37:46;12.93;;;7.05;;
37791;SDS011;29527;55.766;37.570;2022-11-24T02:40:13;12.60;;;7.03;;
37791;SDS011;29527;55.766;37.570;2022-11-24T02:42:40;15.15;;;7.78;;
37791;SDS011;29527;55.766;37.570;2022-11-24T02:45:09;12.07;;;7.32;;
37791;SDS011;29527;55.766;37.570;2022-11-24T02:47:36;12.13;;;5.85;;
37791;SDS011;29527;55.766;37.570;2022-11-24T02:50:02;10.90;;;5.53;;
37791;SDS011;29527;55.766;37.570;2022-11-24T02:52:28;13.75;;;7.25;;
37791;SDS011;29527;55.766;37.570;2022-11-24T02:54:54;15.40;;;8.18;;
37791;SDS011;29527;55.766;37.570;2022-11-24T02:57:21;13.15;;;6.10;;
37791;SDS011;29527;55.766;37.570;2022-11-24T02:59:46;11.85;;;7.05;;
37791;SDS011;29527;55.766;37.570;2022-11-24T03:02:12;11.85;;;5.80;;
37791;SDS011;29527;55.766;37.570;2022-11-24T03:04:37;16.83;;;6.55;;
37791;SDS011;29527;55.766;37.570;2022-11-24T03:07:03;11.60;;;6.47;;
37791;SDS011;29527;55.766;37.570;2022-11-24T03:09:28;13.93;;;7.45;;
37791;SDS011;29527;55.766;37.570;2022-11-24T03:11:54;12.55;;;7.25;;
37791;SDS011;29527;55.766;37.570;2022-11-24T03:14:19;7.03;;;3.72;;
37791;SDS011;29527;55.766;37.570;2022-11-24T03:16:45;12.57;;;7.45;;
37791;SDS011;29527;55.766;37.570;2022-11-24T03:19:10;13.52;;;7.38;;
37791;SDS011;29527;55.766;37.570;2022-11-24T03:21:36;13.38;;;7.68;;
37791;SDS011;29527;55.766;37.570;2022-11-24T03:24:01;15.23;;;8.15;;
37791;SDS011;29527;55.766;37.570;2022-11-24T03:26:26;16.13;;;8.18;;
37791;SDS011;29527;55.766;37.570;2022-11-24T03:28:55;13.43;;;7.25;;
37791;SDS011;29527;55.766;37.570;2022-11-24T03:31:21;14.63;;;8.50;;
37791;SDS011;29527;55.766;37.570;2022-11-24T03:33:48;13.27;;;7.03;;
37791;SDS011;29527;55.766;37.570;2022-11-24T03:36:13;14.77;;;7.95;;
37791;SDS011;29527;55.766;37.570;2022-11-24T03:38:38;16.35;;;8.55;;
37791;SDS011;29527;55.766;37.570;2022-11-24T03:41:04;15.73;;;8.70;;
37791;SDS011;29527;55.766;37.570;2022-11-24T03:43:30;7.80;;;3.60;;
37791;SDS011;29527;55.766;37.570;2022-11-24T03:45:55;11.38;;;5.13;;
37791;SDS011;29527;55.766;37.570;2022-11-24T03:48:21;16.75;;;8.77;;
37791;SDS011;29527;55.766;37.570;2022-11-24T03:50:59;15.02;;;8.40;;
37791;SDS011;29527;55.766;37.570;2022-11-24T03:53:26;16.58;;;8.80;;
37791;SDS011;29527;55.766;37.570;2022-11-24T03:55:54;15.23;;;9.07;;
37791;SDS011;29527;55.766;37.570;2022-11-24T03:58:20;17.10;;;9.30;;
37791;SDS011;29527;55.766;37.570;2022-11-24T04:00:47;14.80;;;8.52;;
37791;SDS011;29527;55.766;37.570;2022-11-24T04:03:13;15.52;;;8.60;;
37791;SDS011;29527;55.766;37.570;2022-11-24T04:05:39;15.38;;;8.80;;
37791;SDS011;29527;55.766;37.570;2022-11-24T04:08:04;15.90;;;9.07;;
37791;SDS011;29527;55.766;37.570;2022-11-24T04:10:31;18.45;;;8.55;;
37791;SDS011;29527;55.766;37.570;2022-11-24T04:13:00;15.43;;;8.55;;
37791;SDS011;29527;55.766;37.570;2022-11-24T04:15:25;17.58;;;8.57;;
37791;SDS011;29527;55.766;37.570;2022-11-24T04:17:53;13.15;;;7.55;;
37791;SDS011;29527;55.766;37.570;2022-11-24T04:20:20;13.82;;;7.28;;
37791;SDS011;29527;55.766;37.570;2022-11-24T04:22:46;17.52;;;9.07;;
37791;SDS011;29527;55.766;37.570;2022-11-24T04:25:14;17.38;;;9.55;;
37791;SDS011;29527;55.766;37.570;2022-11-24T04:27:41;15.00;;;8.70;;
37791;SDS011;29527;55.766;37.570;2022-11-24T04:30:07;13.45;;;7.63;;
37791;SDS011;29527;55.766;37.570;2022-11-24T04:32:33;12.88;;;6.63;;
37791;SDS011;29527;55.766;37.570;2022-11-24T04:34:59;14.48;;;8.35;;
37791;SDS011;29527;55.766;37.570;2022-11-24T04:37:24;13.55;;;8.13;;
37791;SDS011;29527;55.766;37.570;2022-11-24T04:39:49;13.18;;;7.35;;
37791;SDS011;29527;55.766;37.570;2022-11-24T04:42:15;14.65;;;8.05;;
37791;SDS011;29527;55.766;37.570;2022-11-24T04:44:40;14.07;;;7.38;;
37791;SDS011;29527;55.766;37.570;2022-11-24T04:47:16;14.48;;;8.43;;
37791;SDS011;29527;55.766;37.570;2022-11-24T04:49:45;15.10;;;7.82;;
37791;SDS011;29527;55.766;37.570;2022-11-24T04:52:11;11.98;;;7.10;;
37791;SDS011;29527;55.766;37.570;2022-11-24T04:54:36;15.73;;;8.98;;
37791;SDS011;29527;55.766;37.570;2022-11-24T04:57:02;15.05;;;8.32;;
37791;SDS011;29527;55.766;37.570;2022-11-24T04:59:27;14.50;;;7.90;;
37791;SDS011;29527;55.766;37.570;2022-11-24T05:01:52;9.35;;;5.68;;
37791;SDS011;29527;55.766;37.570;2022-11-24T05:04:18;18.38;;;9.38;;
37791;SDS011;29527;55.766;37.570;2022-11-24T05:06:45;14.25;;;6.47;;
37791;SDS011;29527;55.766;37.570;2022-11-24T05:09:14;15.43;;;8.65;;
37791;SDS011;29527;55.766;37.570;2022-11-24T05:11:41;19.90;;;9.07;;
37791;SDS011;29527;55.766;37.570;2022-11-24T05:14:07;17.13;;;8.85;;
37791;SDS011;29527;55.766;37.570;2022-11-24T05:16:33;11.95;;;6.05;;
37791;SDS011;29527;55.766;37.570;2022-11-24T05:18:58;14.85;;;8.05;;
37791;SDS011;29527;55.766;37.570;2022-11-24T05:21:24;12.27;;;6.13;;
37791;SDS011;29527;55.766;37.570;2022-11-24T05:23:49;15.80;;;8.32;;
37791;SDS011;29527;55.766;37.570;2022-11-24T05:26:14;14.73;;;8.13;;
37791;SDS011;29527;55.766;37.570;2022-11-24T05:28:40;14.73;;;7.78;;
37791;SDS011;29527;55.766;37.570;2022-11-24T05:31:05;13.73;;;6.35;;
37791;SDS011;29527;55.766;37.570;2022-11-24T05:33:31;9.95;;;5.75;;
37791;SDS011;29527;55.766;37.570;2022-11-24T05:36:03;13.07;;;7.32;;
37791;SDS011;29527;55.766;37.570;2022-11-24T05:38:30;15.88;;;7.35;;
37791;SDS011;29527;55.766;37.570;2022-11-24T05:41:00;17.20;;;8.88;;
37791;SDS011;29527;55.766;37.570;2022-11-24T05:43:27;16.92;;;9.43;;
37791;SDS011;29527;55.766;37.570;2022-11-24T05:45:53;17.35;;;7.93;;
37791;SDS011;29527;55.766;37.570;2022-11-24T05:48:18;16.05;;;8.93;;
37791;SDS011;29527;55.766;37.570;2022-11-24T05:50:44;22.63;;;9.68;;
37791;SDS011;29527;55.766;37.570;2022-11-24T05:53:10;17.25;;;9.70;;
37791;SDS011;29527;55.766;37.570;2022-11-24T05:55:37;19.42;;;10.13;;
37791;SDS011;29527;55.766;37.570;2022-11-24T05:58:04;17.05;;;8.73;;
37791;SDS011;29527;55.766;37.570;2022-11-24T06:00:32;17.83;;;10.38;;
37791;SDS011;29527;55.766;37.570;2022-11-24T06:02:58;21.38;;;10.38;;
37791;SDS011;29527;55.766;37.570;2022-11-24T06:05:25;20.27;;;8.95;;
37791;SDS011;29527;55.766;37.570;2022-11-24T06:07:52;17.48;;;9.35;;
37791;SDS011;29527;55.766;37.570;2022-11-24T06:10:20;15.75;;;9.35;;
37791;SDS011;29527;55.766;37.570;2022-11-24T06:12:48;16.73;;;9.00;;
37791;SDS011;29527;55.766;37.570;2022-11-24T06:15:14;16.05;;;8.95;;
37791;SDS011;29527;55.766;37.570;2022-11-24T06:17:40;15.95;;;8.05;;
37791;SDS011;29527;55.766;37.570;2022-11-24T06:20:06;14.05;;;6.65;;
37791;SDS011;29527;55.766;37.570;2022-11-24T06:22:32;14.32;;;7.63;;
37791;SDS011;29527;55.766;37.570;2022-11-24T06:24:57;13.45;;;7.85;;
37791;SDS011;29527;55.766;37.570;2022-11-24T06:27:23;15.82;;;9.07;;
37791;SDS011;29527;55.766;37.570;2022-11-24T06:29:49;12.80;;;7.00;;
37791;SDS011;29527;55.766;37.570;2022-11-24T06:32:15;10.00;;;4.88;;
37791;SDS011;29527;55.766;37.570;2022-11-24T06:34:40;16.23;;;8.02;;
37791;SDS011;29527;55.766;37.570;2022-11-24T06:37:06;11.60;;;7.07;;
37791;SDS011;29527;55.766;37.570;2022-11-24T06:39:31;16.35;;;7.97;;
37791;SDS011;29527;55.766;37.570;2022-11-24T06:41:57;12.93;;;6.60;;
37791;SDS011;29527;55.766;37.570;2022-11-24T06:44:22;12.48;;;7.20;;
37791;SDS011;29527;55.766;37.570;2022-11-24T06:46:48;13.77;;;6.97;;
37791;SDS011;29527;55.766;37.570;2022-11-24T06:49:13;15.23;;;9.00;;
37791;SDS011;29527;55.766;37.570;2022-11-24T06:51:39;11.55;;;7.10;;
37791;SDS011;29527;55.766;37.570;2022-11-24T06:54:06;12.02;;;6.22;;
37791;SDS011;29527;55.766;37.570;2022-11-24T06:56:32;14.15;;;8.35;;
37791;SDS011;29527;55.766;37.570;2022-11-24T06:58:57;14.55;;;7.18;;
37791;SDS011;29527;55.766;37.570;2022-11-24T07:01:23;15.82;;;8.77;;
37791;SDS011;29527;55.766;37.570;2022-11-24T07:03:51;18.08;;;8.98;;
37791;SDS011;29527;55.766;37.570;2022-11-24T07:06:18;17.08;;;9.43;;
37791;SDS011;29527;55.766;37.570;2022-11-24T07:08:44;16.60;;;8.77;;
37791;SDS011;29527;55.766;37.570;2022-11-24T07:11:11;16.95;;;9.50;;
37791;SDS011;29527;55.766;37.570;2022-11-24T07:13:42;15.02;;;7.55;;
37791;SDS011;29527;55.766;37.570;2022-11-24T07:16:16;14.75;;;7.35;;
37791;SDS011;29527;55.766;37.570;2022-11-24T07:18:44;17.83;;;9.90;;
37791;SDS011;29527;55.766;37.570;2022-11-24T07:21:11;17.33;;;9.38;;
37791;SDS011;29527;55.766;37.570;2022-11-24T07:23:36;17.83;;;9.40;;
37791;SDS011;29527;55.766;37.570;2022-11-24T07:26:05;15.98;;;9.15;;
37791;SDS011;29527;55.766;37.570;2022-11-24T07:28:33;16.35;;;9.25;;
37791;SDS011;29527;55.766;37.570;2022-11-24T07:31:03;17.67;;;9.10;;
37791;SDS011;29527;55.766;37.570;2022-11-24T07:33:36;17.48;;;9.43;;
37791;SDS011;29527;55.766;37.570;2022-11-24T07:36:02;18.30;;;10.55;;
37791;SDS011;29527;55.766;37.570;2022-11-24T07:38:29;18.95;;;8.68;;
37791;SDS011;29527;55.766;37.570;2022-11-24T07:41:02;18.85;;;10.25;;
37791;SDS011;29527;55.766;37.570;2022-11-24T07:43:29;18.02;;;9.18;;
37791;SDS011;29527;55.766;37.570;2022-11-24T07:45:55;17.92;;;9.77;;
37791;SDS011;29527;55.766;37.570;2022-11-24T07:48:21;16.60;;;8.85;;
37791;SDS011;29527;55.766;37.570;2022-11-24T07:50:47;16.98;;;8.50;;
37791;SDS011;29527;55.766;37.570;2022-11-24T07:53:12;19.83;;;10.05;;
37791;SDS011;29527;55.766;37.570;2022-11-24T07:55:38;14.35;;;7.82;;
37791;SDS011;29527;55.766;37.570;2022-11-24T07:58:03;20.38;;;10.55;;
37791;SDS011;29527;55.766;37.570;2022-11-24T08:00:29;18.40;;;9.88;;
37791;SDS011;29527;55.766;37.570;2022-11-24T08:02:54;18.98;;;10.10;;
37791;SDS011;29527;55.766;37.570;2022-11-24T08:05:19;15.45;;;6.65;;
37791;SDS011;29527;55.766;37.570;2022-11-24T08:07:45;18.73;;;10.07;;
37791;SDS011;29527;55.766;37.570;2022-11-24T08:10:11;17.08;;;9.57;;
37791;SDS011;29527;55.766;37.570;2022-11-24T08:12:36;19.10;;;9.88;;
37791;SDS011;29527;55.766;37.570;2022-11-24T08:15:03;19.38;;;11.18;;
37791;SDS011;29527;55.766;37.570;2022-11-24T08:17:29;25.42;;;12.10;;
37791;SDS011;29527;55.766;37.570;2022-11-24T08:19:54;20.95;;;11.38;;
37791;SDS011;29527;55.766;37.570;2022-11-24T08:22:20;16.50;;;8.30;;
37791;SDS011;29527;55.766;37.570;2022-11-24T08:24:45;23.52;;;9.10;;
37791;SDS011;29527;55.766;37.570;2022-11-24T08:27:13;18.08;;;10.68;;
37791;SDS011;29527;55.766;37.570;2022-11-24T08:29:40;21.33;;;11.20;;
37791;SDS011;29527;55.766;37.570;2022-11-24T08:32:06;22.95;;;11.25;;
37791;SDS011;29527;55.766;37.570;2022-11-24T08:34:32;20.48;;;11.65;;
37791;SDS011;29527;55.766;37.570;2022-11-24T08:36:57;19.60;;;11.00;;
37791;SDS011;29527;55.766;37.570;2022-11-24T08:39:23;21.67;;;12.15;;
37791;SDS011;29527;55.766;37.570;2022-11-24T08:41:48;19.10;;;10.07;;
37791;SDS011;29527;55.766;37.570;2022-11-24T08:44:14;18.70;;;10.25;;
37791;SDS011;29527;55.766;37.570;2022-11-24T08:46:41;19.67;;;10.82;;
37791;SDS011;29527;55.766;37.570;2022-11-24T08:49:07;18.67;;;11.10;;
37791;SDS011;29527;55.766;37.570;2022-11-24T08:51:32;19.95;;;9.77;;
37791;SDS011;29527;55.766;37.570;2022-11-24T08:53:59;14.77;;;8.10;;
37791;SDS011;29527;55.766;37.570;2022-11-24T08:56:26;19.92;;;11.15;;
37791;SDS011;29527;55.766;37.570;2022-11-24T08:58:53;19.25;;;11.25;;
37791;SDS011;29527;55.766;37.570;2022-11-24T09:01:19;22.92;;;12.00;;
37791;SDS011;29527;55.766;37.570;2022-11-24T09:03:46;22.05;;;11.95;;
37791;SDS011;29527;55.766;37.570;2022-11-24T09:06:13;22.08;;;11.35;;
37791;SDS011;29527;55.766;37.570;2022-11-24T09:08:39;21.25;;;11.88;;
37791;SDS011;29527;55.766;37.570;2022-11-24T09:11:06;20.15;;;10.70;;
37791;SDS011;29527;55.766;37.570;2022-11-24T09:13:33;22.92;;;11.88;;
37791;SDS011;29527;55.766;37.570;2022-11-24T09:16:03;21.17;;;11.07;;
37791;SDS011;29527;55.766;37.570;2022-11-24T09:18:36;18.73;;;11.13;;
37791;SDS011;29527;55.766;37.570;2022-11-24T09:21:05;19.30;;;10.75;;
37791;SDS011;29527;55.766;37.570;2022-11-24T09:23:41;19.15;;;10.45;;
37791;SDS011;29527;55.766;37.570;2022-11-24T09:26:08;19.50;;;10.80;;
37791;SDS011;29527;55.766;37.570;2022-11-24T09:28:35;20.40;;;10.32;;
37791;SDS011;29527;55.766;37.570;2022-11-24T09:31:02;19.45;;;10.95;;
37791;SDS011;29527;55.766;37.570;2022-11-24T09:33:29;22.58;;;12.48;;
37791;SDS011;29527;55.766;37.570;2022-11-24T09:35:55;20.83;;;12.13;;
37791;SDS011;29527;55.766;37.570;2022-11-24T09:38:21;24.40;;;12.63;;
37791;SDS011;29527;55.766;37.570;2022-11-24T09:40:47;24.00;;;12.30;;
37791;SDS011;29527;55.766;37.570;2022-11-24T09:43:15;25.33;;;12.80;;
37791;SDS011;29527;55.766;37.570;2022-11-24T09:48:20;21.40;;;10.73;;
37791;SDS011;29527;55.766;37.570;2022-11-24T09:50:51;21.55;;;10.60;;
37791;SDS011;29527;55.766;37.570;2022-11-24T10:01:34;25.58;;;12.32;;
37791;SDS011;29527;55.766;37.570;2022-11-24T10:04:08;22.83;;;12.35;;
37791;SDS011;29527;55.766;37.570;2022-11-24T10:12:15;23.65;;;11.68;;
37791;SDS011;29527;55.766;37.570;2022-11-24T10:17:40;27.55;;;12.75;;
37791;SDS011;29527;55.766;37.570;2022-11-24T10:23:11;20.55;;;11.00;;
37791;SDS011;29527;55.766;37.570;2022-11-24T10:26:00;16.73;;;8.07;;
37791;SDS011;29527;55.766;37.570;2022-11-24T10:28:40;19.88;;;10.50;;
37791;SDS011;29527;55.766;37.570;2022-11-24T10:31:17;20.45;;;10.77;;
37791;SDS011;29527;55.766;37.570;2022-11-24T10:34:13;18.27;;;10.10;;
37791;SDS011;29527;55.766;37.570;2022-11-24T10:36:49;24.00;;;11.27;;
37791;SDS011;29527;55.766;37.570;2022-11-24T10:42:17;21.92;;;10.75;;
37791;SDS011;29527;55.766;37.570;2022-11-24T10:44:57;20.15;;;9.30;;
37791;SDS011;29527;55.766;37.570;2022-11-24T10:47:25;20.13;;;10.00;;
37791;SDS011;29527;55.766;37.570;2022-11-24T10:50:02;17.80;;;9.07;;
37791;SDS011;29527;55.766;37.570;2022-11-24T10:52:35;20.77;;;11.48;;
37791;SDS011;29527;55.766;37.570;2022-11-24T10:55:05;20.67;;;10.82;;
37791;SDS011;29527;55.766;37.570;2022-11-24T10:57:32;21.75;;;11.10;;
37791;SDS011;29527;55.766;37.570;2022-11-24T11:03:10;19.25;;;9.98;;
37791;SDS011;29527;55.766;37.570;2022-11-24T11:05:41;18.65;;;9.77;;
37791;SDS011;29527;55.766;37.570;2022-11-24T11:08:15;15.82;;;8.05;;
37791;SDS011;29527;55.766;37.570;2022-11-24T11:10:49;19.15;;;8.48;;
37791;SDS011;29527;55.766;37.570;2022-11-24T11:13:35;16.40;;;7.18;;
37791;SDS011;29527;55.766;37.570;2022-11-24T11:16:01;21.13;;;10.90;;
37791;SDS011;29527;55.766;37.570;2022-11-24T11:21:21;23.92;;;10.82;;
37791;SDS011;29527;55.766;37.570;2022-11-24T11:23:51;17.67;;;8.45;;
37791;SDS011;29527;55.766;37.570;2022-11-24T11:28:56;23.60;;;10.93;;
37791;SDS011;29527;55.766;37.570;2022-11-24T11:31:26;20.55;;;10.88;;
37791;SDS011;29527;55.766;37.570;2022-11-24T11:34:11;21.88;;;10.98;;
37791;SDS011;29527;55.766;37.570;2022-11-24T11:36:48;21.90;;;11.00;;
37791;SDS011;29527;55.766;37.570;2022-11-24T11:39:23;17.73;;;8.95;;
37791;SDS011;29527;55.766;37.570;2022-11-24T11:41:55;22.38;;;10.65;;
37791;SDS011;29527;55.766;37.570;2022-11-24T11:44:34;23.80;;;10.98;;
37791;SDS011;29527;55.766;37.570;2022-11-24T11:47:19;22.80;;;10.18;;
37791;SDS011;29527;55.766;37.570;2022-11-24T11:49:48;22.15;;;11.57;;
37791;SDS011;29527;55.766;37.570;2022-11-24T11:57:47;21.05;;;10.60;;
37791;SDS011;29527;55.766;37.570;2022-11-24T12:00:21;18.02;;;9.07;;
37791;SDS011;29527;55.766;37.570;2022-11-24T12:02:53;22.98;;;10.65;;
37791;SDS011;29527;55.766;37.570;2022-11-24T12:08:38;22.08;;;11.75;;
37791;SDS011;29527;55.766;37.570;2022-11-24T12:16:42;19.80;;;9.07;;
37791;SDS011;29527;55.766;37.570;2022-11-24T12:21:57;21.55;;;11.15;;
37791;SDS011;29527;55.766;37.570;2022-11-24T12:24:49;23.45;;;10.75;;
37791;SDS011;29527;55.766;37.570;2022-11-24T12:27:50;22.50;;;11.18;;
37791;SDS011;29527;55.766;37.570;2022-11-24T12:30:21;24.85;;;12.65;;
37791;SDS011;29527;55.766;37.570;2022-11-24T12:44:43;18.65;;;8.32;;
37791;SDS011;29527;55.766;37.570;2022-11-24T12:50:02;21.85;;;10.00;;
37791;SDS011;29527;55.766;37.570;2022-11-24T12:52:36;24.13;;;11.32;;
37791;SDS011;29527;55.766;37.570;2022-11-24T12:55:17;18.92;;;9.65;;
37791;SDS011;29527;55.766;37.570;2022-11-24T12:57:52;21.80;;;10.75;;
37791;SDS011;29527;55.766;37.570;2022-11-24T13:00:22;19.63;;;11.02;;
37791;SDS011;29527;55.766;37.570;2022-11-24T13:03:14;19.80;;;10.13;;
37791;SDS011;29527;55.766;37.570;2022-11-24T13:08:35;21.15;;;10.02;;
37791;SDS011;29527;55.766;37.570;2022-11-24T13:13:58;24.55;;;12.07;;
37791;SDS011;29527;55.766;37.570;2022-11-24T13:16:24;19.02;;;9.43;;
37791;SDS011;29527;55.766;37.570;2022-11-24T13:18:52;24.88;;;12.73;;
37791;SDS011;29527;55.766;37.570;2022-11-24T13:24:19;17.83;;;7.88;;
37791;SDS011;29527;55.766;37.570;2022-11-24T13:26:48;25.75;;;13.15;;
37791;SDS011;29527;55.766;37.570;2022-11-24T13:29:35;23.80;;;12.65;;
37791;SDS011;29527;55.766;37.570;2022-11-24T13:37:17;23.73;;;11.73;;
37791;SDS011;29527;55.766;37.570;2022-11-24T13:42:25;27.35;;;12.20;;
37791;SDS011;29527;55.766;37.570;2022-11-24T13:44:53;22.98;;;10.00;;
37791;SDS011;29527;55.766;37.570;2022-11-24T13:47:37;24.63;;;12.32;;
37791;SDS011;29527;55.766;37.570;2022-11-24T13:55:39;26.17;;;12.25;;
37791;SDS011;29527;55.766;37.570;2022-11-24T13:58:21;24.55;;;12.02;;
37791;SDS011;29527;55.766;37.570;2022-11-24T14:06:36;18.92;;;9.13;;
37791;SDS011;29527;55.766;37.570;2022-11-24T14:09:30;19.30;;;9.55;;
37791;SDS011;29527;55.766;37.570;2022-11-24T14:11:56;21.02;;;9.10;;
37791;SDS011;29527;55.766;37.570;2022-11-24T14:14:22;21.80;;;11.07;;
37791;SDS011;29527;55.766;37.570;2022-11-24T14:17:03;27.52;;;13.13;;
37791;SDS011;29527;55.766;37.570;2022-11-24T14:19:41;21.77;;;10.98;;
37791;SDS011;29527;55.766;37.570;2022-11-24T14:22:17;21.02;;;10.90;;
37791;SDS011;29527;55.766;37.570;2022-11-24T14:24:50;22.83;;;11.70;;
37791;SDS011;29527;55.766;37.570;2022-11-24T14:27:26;20.23;;;10.35;;
37791;SDS011;29527;55.766;37.570;2022-11-24T14:29:58;19.80;;;11.32;;
37791;SDS011;29527;55.766;37.570;2022-11-24T14:32:26;19.58;;;9.50;;
37791;SDS011;29527;55.766;37.570;2022-11-24T14:34:51;22.02;;;10.40;;
37791;SDS011;29527;55.766;37.570;2022-11-24T14:37:18;22.45;;;10.90;;
37791;SDS011;29527;55.766;37.570;2022-11-24T14:39:44;20.10;;;11.20;;
37791;SDS011;29527;55.766;37.570;2022-11-24T14:47:28;20.13;;;9.40;;
37791;SDS011;29527;55.766;37.570;2022-11-24T14:49:55;20.00;;;10.27;;
37791;SDS011;29527;55.766;37.570;2022-11-24T14:52:22;21.58;;;10.88;;
37791;SDS011;29527;55.766;37.570;2022-11-24T15:00:41;15.50;;;7.25;;
37791;SDS011;29527;55.766;37.570;2022-11-24T15:08:15;17.52;;;9.30;;
37791;SDS011;29527;55.766;37.570;2022-11-24T15:10:41;22.55;;;10.70;;
37791;SDS011;29527;55.766;37.570;2022-11-24T15:13:18;19.40;;;10.20;;
37791;SDS011;29527;55.766;37.570;2022-11-24T15:15:46;22.10;;;10.88;;
37791;SDS011;29527;55.766;37.570;2022-11-24T15:20:55;25.33;;;10.85;;
37791;SDS011;29527;55.766;37.570;2022-11-24T15:23:22;15.93;;;8.15;;
37791;SDS011;29527;55.766;37.570;2022-11-24T15:26:34;16.75;;;8.32;;
37791;SDS011;29527;55.766;37.570;2022-11-24T15:31:01;12.25;;;6.72;;
37791;SDS011;29527;55.766;37.570;2022-11-24T15:33:28;17.45;;;9.27;;
37791;SDS011;29527;55.766;37.570;2022-11-24T15:35:55;18.98;;;9.55;;
37791;SDS011;29527;55.766;37.570;2022-11-24T15:38:21;17.05;;;9.05;;
37791;SDS011;29527;55.766;37.570;2022-11-24T15:40:48;17.88;;;9.70;;
37791;SDS011;29527;55.766;37.570;2022-11-24T15:43:17;17.23;;;10.20;;
37791;SDS011;29527;55.766;37.570;2022-11-24T15:45:49;19.50;;;9.90;;
37791;SDS011;29527;55.766;37.570;2022-11-24T15:48:15;18.63;;;9.85;;
37791;SDS011;29527;55.766;37.570;2022-11-24T15:50:40;18.17;;;10.48;;
37791;SDS011;29527;55.766;37.570;2022-11-24T15:53:08;20.63;;;10.35;;
37791;SDS011;29527;55.766;37.570;2022-11-24T15:55:40;14.95;;;7.88;;
37791;SDS011;29527;55.766;37.570;2022-11-24T15:58:06;17.85;;;9.52;;
37791;SDS011;29527;55.766;37.570;2022-11-24T16:00:35;17.23;;;9.52;;
37791;SDS011;29527;55.766;37.570;2022-11-24T16:03:01;18.50;;;9.75;;
37791;SDS011;29527;55.766;37.570;2022-11-24T16:05:27;14.45;;;8.20;;
37791;SDS011;29527;55.766;37.570;2022-11-24T16:07:52;18.45;;;9.60;;
37791;SDS011;29527;55.766;37.570;2022-11-24T16:10:25;17.20;;;9.40;;
37791;SDS011;29527;55.766;37.570;2022-11-24T16:12:53;14.90;;;8.18;;
37791;SDS011;29527;55.766;37.570;2022-11-24T16:15:19;19.30;;;10.35;;
37791;SDS011;29527;55.766;37.570;2022-11-24T16:17:45;18.08;;;9.93;;
37791;SDS011;29527;55.766;37.570;2022-11-24T16:20:10;20.25;;;10.35;;
37791;SDS011;29527;55.766;37.570;2022-11-24T16:22:36;15.05;;;7.93;;
37791;SDS011;29527;55.766;37.570;2022-11-24T16:25:02;17.15;;;9.55;;
37791;SDS011;29527;55.766;37.570;2022-11-24T16:27:29;17.55;;;9.32;;